Terminal Aerodrome Forecast
Issued by NWS Wilmington, NC

Home | Current Version | Previous Version | Text Only | Print | Product List | Glossary On
Versions: 1 2 3 4 5 6 7 8 9 10 11 12 13
000
FTUS42 KILM 201700
TAFMYR
TAF
KMYR 201729Z 2018/2118 17011KT P6SM VCTS SCT025CB BKN050
      TEMPO 2018/2022 3SM TSRA BR BKN025CB OVC045
     FM210000 VRB02KT P6SM FEW250
     FM210900 00000KT 2SM BR BKN250
     FM211300 VRB04KT P6SM SCT250=

USA.gov is the U.S. government's official web portal to all federal, state and local government web resources and services.